Terminal Aerodrome Forecast
Issued by NWS

Home | Current Version | Previous Version | Text Only | Print | Product List | Glossary On
Versions: 1 2 3 4 5 6 7 8 9 10 11 12 13 14 15 16 17 18 19 20 21 22 23 24 25 26 27 28 29 30 31 32 33 34 35 36 37 38
000
FTUS45 KGGW 262300
TAFGDV
TAF
KGDV 262320Z 2700/2724 VRB06KT P6SM VCSH OVC060
     FM270200 11010KT 5SM -SN OVC015
     FM271200 VRB05KT 3SM -FZRASN OVC020
     FM271800 19008KT P6SM VCSH OVC023
      AMD LTD TO CLD VIS AND WIND=

USA.gov is the U.S. government's official web portal to all federal, state and local government web resources and services.